AirNav   Pilot Hours Calculator
 
 663 users online  

WS06 Springstead Airport
Park Falls, Wisconsin, USA

GOING TO PARK FALLS?


FAA INFORMATION EFFECTIVE 26 JANUARY 2023

Location

FAA Identifier: WS06
Lat/Long: 45-59-15.8140N 090-09-48.5820W
45-59.263567N 090-09.809700W
45.9877261,-90.1634950
(estimated)
Elevation: 1600 ft. / 488 m (estimated)
Variation: 00E (1985)
From city: 14 miles NE of PARK FALLS, WI
Time zone: UTC -6 (UTC -5 during Daylight Saving Time)
Zip code: 54552

Airport Operations

Airport use: Private use. Permission required prior to landing
Activation date: 10/1982
Control tower: no
ARTCC: MINNEAPOLIS CENTER
FSS: GREEN BAY FLIGHT SERVICE STATION
Attendance: UNATNDD
Segmented circle: no

Airport Communications

WX AWOS-3PT at D25 (14 nm NE): 118.175 (715-543-2004)
WX AWOS-3 at ARV (18 nm E): 121.125 (715-356-2417)
WX AWOS-3 at PBH (19 nm SW): 125.875 (715-339-4520)

Nearby radio navigation aids

VOR radial/distance  VOR name  Freq  Var
IWDr182/32.7IRONWOOD VOR/DME108.8001E
RHIr304/36.4RHINELANDER VOR/DME109.2002E

Airport Services

Runway Information

Runway 1/19

Dimensions: 2000 x 60 ft. / 610 x 18 m
Surface: turf
RUNWAY 1  RUNWAY 19
Traffic pattern: leftleft

Airport Ownership and Management from official FAA records

Ownership: Privately-owned
Owner: LUGINO D. DALESSANDRO
4671W MARTY LAKE RD
PARK FALLS, WI 54552
Phone 715-583-4533
Manager: LUGINO D. DALESSANDRO
4671W MARTY LAKE RD
PARK FALLS, WI 54552
Phone 715-583-4533

Airport Operational Statistics

Aircraft based on the field: 3
Single engine airplanes: 1
Multi engine airplanes: 1
Helicopters: 1
    

Additional Remarks

FOR CD CTC MINNEAPOLIS ARTCC AT 651-463-5588.

Instrument Procedures

There are no published instrument procedures at WS06.

Some nearby airports with instrument procedures:

KPKF - Park Falls Municipal Airport (11 nm W)
D25 - Manitowish Waters Airport (14 nm NE)
KARV - Lakeland Airport/Noble F. Lee Memorial Field (18 nm E)
KPBH - Price County Airport (19 nm SW)
KIWD - Gogebic/Iron County Airport (32 nm N)
 
Loc | Ops | Rwys | IFR | FBO | Links
Com | Nav | Svcs | Stats | Notes
Area around WS06 (Springstead Airport)
 
Road maps at: MapQuest Bing Google
 
Aerial photo
No photo
 
Sectional chart

 
Airport distance calculator
Flying to Springstead Airport? Find the distance to fly.

From to WS06

Sunrise and sunset
Times for 27-Jan-2023
 Local
(UTC-6)
 Zulu
(UTC)
Morning civil twilight06:5712:57
Sunrise07:3013:30
Sunset16:5722:57
Evening civil twilight17:3023:30

Current date and time
Zulu (UTC)  27-Jan-2023 11:37:20
Local (UTC-6)  27-Jan-2023 05:37:20
 
METAR
KD25 
14nm NE 
271115Z AUTO 17011G18KT 2 1/2SM -SN SCT015 BKN021 OVC025 M12/M14 A2943 RMK AO2 T11201140
KARV 
19nm E 
271115Z AUTO 18009G15KT 2SM -SN BKN009 OVC012 M12/M14 A2945 RMK AO2 T11171139
KPBH 
20nm SW 
271115Z AUTO 17011G15KT 3SM -SN BKN020 OVC030 M11/M13 A2944 RMK AO2 T11101130
TAF
KIWD 
32nm N 
270523Z 2706/2806 18009G18KT P6SM FEW210 FM271000 18015G25KT 5SM -SHSN BLSN OVC025 WS020/21050KT FM271500 20015G27KT 3/4SM -SHSN BLSN OVC016 FM271700 25017G28KT 3SM -SHSN BLSN BKN015 FM280000 29014G24KT P6SM BKN020
KRHI 
36nm SE 
270932Z 2710/2806 17010G16KT P6SM SCT020 BKN035 WS020/21040KT TEMPO 2710/2712 3SM -SN OVC020 FM271200 19013G24KT 2SM -SN BKN012 OVC020 WS020/21040KT TEMPO 2712/2716 1SM -SN OVC010 FM271800 25012G22KT 6SM -SHSN OVC020 FM272000 28013G22KT P6SM OVC025
NOTAMs
Click for the latest NOTAMs
NOTAMs are issued by the DoD/FAA and will open in a separate window not controlled by AirNav.

 

 
 

Would you like to see your business listed on this page?

 If your business provides an interesting product or service to pilots, flight crews, aircraft, or users of the Springstead Airport, you should consider listing it here.  To start the listing process, click on the button below
 
Add a business
 

Other Pages about Springstead Airport

Update a link
 
Copyright © AirNav, LLC. All rights reserved. Privacy Policy  Contact